createdAt,value
2022-08-04T00:01:59.553Z,25.10
2022-08-04T00:04:36.095Z,25.20
2022-08-04T00:07:09.508Z,25.10
2022-08-04T00:09:45.285Z,25.00
2022-08-04T00:12:17.126Z,25.10
2022-08-04T00:14:49.734Z,25.00
2022-08-04T00:17:22.685Z,24.90
2022-08-04T00:19:54.470Z,24.90
2022-08-04T00:22:27.697Z,24.90
2022-08-04T00:24:57.379Z,24.80
2022-08-04T00:27:25.528Z,24.80
2022-08-04T00:29:53.956Z,24.80
2022-08-04T00:32:33.947Z,24.50
2022-08-04T00:35:03.169Z,24.30
2022-08-04T00:37:31.772Z,24.20
2022-08-04T00:40:00.854Z,24.00
2022-08-04T00:42:36.350Z,23.80
2022-08-04T00:46:10.956Z,23.80
2022-08-04T00:48:54.247Z,23.70
2022-08-04T00:51:32.170Z,23.80
2022-08-04T00:54:07.523Z,23.70
2022-08-04T00:56:52.003Z,23.50
2022-08-04T00:59:32.120Z,23.80
2022-08-04T01:02:02.435Z,23.90
2022-08-04T01:04:47.111Z,24.00
2022-08-04T01:07:39.431Z,23.60
2022-08-04T01:10:17.418Z,23.40
2022-08-04T01:13:15.613Z,23.10
2022-08-04T01:16:00.665Z,23.20
2022-08-04T01:18:37.110Z,23.30
2022-08-04T01:21:27.116Z,23.30
2022-08-04T01:24:25.064Z,23.70
2022-08-04T01:26:58.709Z,23.90
2022-08-04T01:29:47.002Z,24.10
2022-08-04T01:32:25.596Z,24.10
2022-08-04T01:35:01.857Z,24.00
2022-08-04T01:37:48.310Z,24.10
2022-08-04T01:40:17.234Z,24.00
2022-08-04T01:42:46.435Z,23.80
2022-08-04T01:45:16.916Z,23.80
2022-08-04T01:47:51.083Z,23.70
2022-08-04T01:50:19.152Z,23.70
2022-08-04T01:52:51.183Z,23.60
2022-08-04T01:55:20.435Z,23.60
2022-08-04T01:57:50.923Z,23.70
2022-08-04T02:00:23.542Z,23.80
2022-08-04T02:02:52.427Z,23.80
2022-08-04T02:05:22.919Z,23.60
2022-08-04T02:08:05.412Z,23.60
2022-08-04T02:10:46.529Z,23.60
2022-08-04T02:13:21.313Z,23.60
2022-08-04T02:16:02.742Z,23.60
2022-08-04T02:18:34.563Z,23.60
2022-08-04T02:21:03.652Z,23.60
2022-08-04T02:23:38.532Z,23.50
2022-08-04T02:26:19.315Z,23.50
2022-08-04T02:29:00.155Z,23.40
2022-08-04T02:31:34.490Z,23.30
2022-08-04T02:34:08.965Z,23.00
2022-08-04T02:36:39.224Z,23.10
2022-08-04T02:39:08.986Z,23.00
2022-08-04T02:41:38.357Z,23.10
2022-08-04T02:44:08.201Z,23.00
2022-08-04T02:46:39.744Z,23.00
2022-08-04T02:49:09.798Z,23.00
2022-08-04T02:51:40.577Z,22.90
2022-08-04T02:54:09.078Z,22.70
2022-08-04T02:56:39.092Z,22.60
2022-08-04T02:59:09.355Z,22.50
2022-08-04T03:01:57.683Z,22.60
2022-08-04T03:04:52.169Z,22.60
2022-08-04T03:07:58.510Z,22.40
2022-08-04T03:11:03.983Z,22.10
2022-08-04T03:13:54.772Z,21.90
2022-08-04T03:16:47.158Z,21.60
2022-08-04T03:19:43.817Z,21.50
2022-08-04T03:23:06.281Z,21.30
2022-08-04T03:26:39.537Z,21.20
2022-08-04T03:29:43.493Z,21.00
2022-08-04T03:32:43.799Z,20.90
2022-08-04T03:35:59.359Z,20.80
2022-08-04T03:38:59.076Z,20.70
2022-08-04T03:41:51.476Z,20.60
2022-08-04T03:45:02.194Z,20.70
2022-08-04T03:47:47.117Z,20.50
2022-08-04T03:51:08.471Z,20.50
2022-08-04T03:53:47.609Z,20.50
2022-08-04T03:56:52.807Z,20.50
2022-08-04T03:59:48.824Z,20.60
2022-08-04T04:02:42.723Z,20.60
2022-08-04T04:06:00.511Z,20.70
2022-08-04T04:09:20.876Z,20.80
2022-08-04T04:12:15.777Z,20.80
2022-08-04T04:15:15.891Z,20.80
2022-08-04T04:18:15.813Z,20.70
2022-08-04T04:21:13.797Z,20.70
2022-08-04T04:24:01.737Z,20.60
2022-08-04T04:26:54.408Z,20.60
2022-08-04T04:29:38.663Z,20.60
2022-08-04T04:32:19.395Z,20.70
2022-08-04T04:35:01.012Z,20.70
2022-08-04T04:38:01.428Z,20.90
2022-08-04T04:40:39.478Z,21.00
2022-08-04T04:43:20.183Z,21.10
2022-08-04T04:45:56.261Z,21.30
2022-08-04T04:48:37.478Z,21.50
2022-08-04T04:51:16.336Z,21.80
2022-08-04T04:54:00.107Z,22.40
2022-08-04T04:56:34.353Z,23.20
2022-08-04T04:59:03.769Z,24.10
2022-08-04T05:01:55.210Z,25.00
2022-08-04T05:05:05.099Z,25.70
2022-08-04T05:08:42.991Z,26.30
2022-08-04T05:11:19.873Z,27.00
2022-08-04T05:14:38.496Z,27.60
2022-08-04T05:16:47.034Z,28.00
2022-08-04T05:19:25.283Z,28.30
2022-08-04T05:22:01.309Z,28.70
2022-08-04T05:24:34.993Z,28.70
2022-08-04T05:27:13.275Z,29.00
2022-08-04T05:29:51.240Z,29.30
2022-08-04T05:32:27.672Z,29.40
2022-08-04T05:35:01.459Z,29.60
2022-08-04T05:37:37.424Z,29.90
2022-08-04T05:40:09.667Z,30.20
2022-08-04T05:42:40.786Z,30.40
2022-08-04T05:45:13.610Z,30.10
2022-08-04T05:50:33.976Z,30.10
2022-08-04T05:53:02.717Z,30.30
2022-08-04T05:55:58.967Z,30.10
2022-08-04T05:58:21.843Z,30.20
2022-08-04T06:00:52.672Z,30.40
2022-08-04T06:03:24.379Z,30.40
2022-08-04T06:05:54.011Z,30.20
2022-08-04T06:08:22.149Z,30.40
2022-08-04T06:10:52.133Z,30.80
2022-08-04T06:13:48.454Z,31.40
2022-08-04T06:16:29.627Z,31.50
2022-08-04T06:20:03.316Z,31.10
2022-08-04T06:22:01.540Z,31.80
2022-08-04T06:24:31.467Z,31.80
2022-08-04T06:27:00.748Z,31.40
2022-08-04T06:29:34.793Z,31.20
2022-08-04T06:32:29.524Z,31.80
2022-08-04T06:35:03.422Z,31.80
2022-08-04T06:37:43.488Z,31.80
2022-08-04T06:40:31.344Z,32.60
2022-08-04T06:43:02.093Z,32.30
2022-08-04T06:45:31.565Z,33.20
2022-08-04T06:48:01.066Z,33.50
2022-08-04T06:51:27.260Z,33.30
2022-08-04T06:53:20.477Z,33.60
2022-08-04T06:55:50.285Z,33.60
2022-08-04T06:58:20.605Z,33.70
2022-08-04T07:00:50.596Z,34.00
2022-08-04T07:03:21.894Z,34.20
2022-08-04T07:05:53.393Z,34.30
2022-08-04T07:08:23.618Z,34.20
2022-08-04T07:10:53.268Z,34.40
2022-08-04T07:13:23.412Z,34.20
2022-08-04T07:15:51.861Z,34.50
2022-08-04T07:18:20.195Z,34.10
2022-08-04T07:20:48.400Z,34.20
2022-08-04T07:23:19.914Z,34.10
2022-08-04T07:26:12.051Z,34.40
2022-08-04T07:28:41.904Z,34.80
2022-08-04T07:31:33.494Z,34.60
2022-08-04T07:34:20.483Z,34.90
2022-08-04T07:36:52.974Z,34.80
2022-08-04T07:39:28.975Z,34.60
2022-08-04T07:42:02.644Z,34.70
2022-08-04T07:44:32.110Z,34.60
2022-08-04T07:47:01.109Z,34.20
2022-08-04T07:49:55.954Z,34.60
2022-08-04T07:52:18.661Z,34.80
2022-08-04T07:54:49.325Z,34.20
2022-08-04T07:57:41.242Z,34.60
2022-08-04T08:00:10.093Z,34.50
2022-08-04T08:02:39.367Z,35.00
2022-08-04T08:05:10.361Z,35.40
2022-08-04T08:07:50.695Z,34.60
2022-08-04T08:10:24.397Z,34.60
2022-08-04T08:12:53.464Z,34.40
2022-08-04T08:15:22.594Z,34.60
2022-08-04T08:17:58.587Z,35.10
2022-08-04T08:20:32.406Z,34.90
2022-08-04T08:23:02.432Z,34.80
2022-08-04T08:25:35.041Z,34.90
2022-08-04T08:28:05.681Z,35.00
2022-08-04T08:30:34.722Z,34.50
2022-08-04T08:33:07.072Z,34.10
2022-08-04T08:35:53.287Z,34.00
2022-08-04T08:38:29.743Z,33.30
2022-08-04T08:41:13.683Z,32.60
2022-08-04T08:44:00.507Z,32.10
2022-08-04T08:47:05.515Z,31.80
2022-08-04T08:50:07.140Z,31.50
2022-08-04T08:52:56.186Z,31.30
2022-08-04T08:55:46.947Z,31.30
2022-08-04T08:58:56.303Z,31.30
2022-08-04T09:01:43.868Z,31.50
2022-08-04T09:04:41.920Z,31.60
2022-08-04T09:07:35.969Z,31.60
2022-08-04T09:10:11.972Z,31.60
2022-08-04T09:12:51.830Z,31.70
2022-08-04T09:15:31.016Z,31.60
2022-08-04T09:18:04.270Z,31.50
2022-08-04T09:20:40.067Z,31.60
2022-08-04T09:23:17.102Z,31.50
2022-08-04T09:25:52.446Z,31.70
2022-08-04T09:28:51.681Z,31.80
2022-08-04T09:31:17.944Z,31.70
2022-08-04T09:33:52.168Z,31.90
2022-08-04T09:36:30.879Z,32.00
2022-08-04T09:39:20.829Z,31.90
2022-08-04T09:41:59.658Z,32.20
2022-08-04T09:44:49.798Z,32.10
2022-08-04T09:47:39.432Z,32.30
2022-08-04T09:50:31.008Z,32.20
2022-08-04T09:53:08.446Z,32.10
2022-08-04T09:55:53.494Z,32.10
2022-08-04T09:58:40.423Z,32.20
2022-08-04T10:01:12.749Z,32.30
2022-08-04T10:03:46.756Z,32.50
2022-08-04T10:06:40.572Z,32.30
2022-08-04T10:09:20.855Z,32.30
2022-08-04T10:12:13.638Z,32.20
2022-08-04T10:14:52.888Z,32.40
2022-08-04T10:18:02.907Z,32.50
2022-08-04T10:20:55.531Z,32.50
2022-08-04T10:23:56.044Z,32.60
2022-08-04T10:26:37.744Z,32.70
2022-08-04T10:29:20.631Z,32.70
2022-08-04T10:31:56.462Z,32.70
2022-08-04T10:34:30.133Z,32.70
2022-08-04T10:37:07.412Z,32.70
2022-08-04T10:40:04.113Z,32.70
2022-08-04T10:42:37.014Z,32.80
2022-08-04T10:45:15.328Z,33.00
2022-08-04T10:47:53.275Z,33.00
2022-08-04T10:50:24.649Z,33.10
2022-08-04T10:53:02.224Z,33.00
2022-08-04T10:56:07.141Z,33.10
2022-08-04T10:58:47.980Z,33.30
2022-08-04T11:02:01.131Z,33.10
2022-08-04T11:04:27.774Z,33.00
2022-08-04T11:06:57.981Z,33.10
2022-08-04T11:09:30.044Z,33.20
2022-08-04T11:12:04.723Z,33.30
2022-08-04T11:14:38.829Z,33.40
2022-08-04T11:17:12.427Z,33.30
2022-08-04T11:19:53.004Z,33.40
2022-08-04T11:22:27.509Z,33.40
2022-08-04T11:25:07.564Z,33.40
2022-08-04T11:27:43.784Z,33.20
2022-08-04T11:30:14.667Z,33.10
2022-08-04T11:33:02.973Z,33.30
2022-08-04T11:35:36.866Z,33.30
2022-08-04T11:38:13.629Z,33.30
2022-08-04T11:41:02.767Z,33.30
2022-08-04T11:44:01.284Z,33.30
2022-08-04T11:46:31.580Z,33.30
2022-08-04T11:49:04.392Z,33.40
2022-08-04T11:51:34.394Z,33.30
2022-08-04T11:54:03.618Z,33.50
2022-08-04T11:56:35.687Z,33.60
2022-08-04T11:59:08.546Z,33.70
2022-08-04T12:01:51.768Z,33.90
2022-08-04T12:04:28.148Z,33.90
2022-08-04T12:07:28.883Z,33.90
2022-08-04T12:10:04.615Z,34.00
2022-08-04T12:12:43.600Z,33.90
2022-08-04T12:15:19.827Z,33.90
2022-08-04T12:17:55.969Z,33.90
2022-08-04T12:20:39.654Z,34.10
2022-08-04T12:23:16.778Z,34.00
2022-08-04T12:25:49.122Z,34.00
2022-08-04T12:28:26.372Z,33.90
2022-08-04T12:31:05.283Z,33.70
2022-08-04T12:34:04.191Z,33.70
2022-08-04T12:36:36.983Z,33.80
2022-08-04T12:39:11.842Z,33.90
2022-08-04T12:41:44.950Z,33.90
2022-08-04T12:44:37.555Z,33.90
2022-08-04T12:47:27.402Z,33.90
2022-08-04T12:50:01.690Z,33.80
2022-08-04T12:53:00.480Z,33.70
2022-08-04T12:55:24.561Z,33.60
2022-08-04T12:57:54.731Z,33.50
2022-08-04T13:00:34.290Z,33.50
2022-08-04T13:03:10.493Z,33.70
2022-08-04T13:05:42.179Z,33.90
2022-08-04T13:08:12.526Z,34.00
2022-08-04T13:10:45.059Z,34.10
2022-08-04T13:13:18.841Z,34.20
2022-08-04T13:15:58.665Z,34.30
2022-08-04T13:18:32.399Z,34.30
2022-08-04T13:21:21.027Z,34.20
2022-08-04T13:24:10.858Z,34.30
2022-08-04T13:26:55.218Z,34.30
2022-08-04T13:30:00.817Z,34.40
2022-08-04T13:32:23.456Z,34.40
2022-08-04T13:34:53.974Z,34.50
2022-08-04T13:37:26.369Z,34.30
2022-08-04T13:40:04.924Z,34.20
2022-08-04T13:42:37.808Z,34.30
2022-08-04T13:45:09.777Z,34.40
2022-08-04T13:47:41.500Z,34.30
2022-08-04T13:50:20.478Z,34.40
2022-08-04T13:52:49.201Z,34.40
2022-08-04T13:55:24.667Z,34.50
2022-08-04T13:58:00.430Z,34.50
2022-08-04T14:00:46.435Z,34.50
2022-08-04T14:03:25.777Z,34.50
2022-08-04T14:06:16.835Z,34.50
2022-08-04T14:09:02.713Z,34.50
2022-08-04T14:12:06.801Z,34.40
2022-08-04T14:14:26.771Z,34.50
2022-08-04T14:17:00.499Z,34.60
2022-08-04T14:19:48.150Z,34.60
2022-08-04T14:22:34.773Z,34.80
2022-08-04T14:25:05.622Z,34.70
2022-08-04T14:27:43.530Z,34.70
2022-08-04T14:30:26.879Z,34.80
2022-08-04T14:34:01.349Z,34.70
2022-08-04T14:36:04.105Z,34.80
2022-08-04T14:38:53.940Z,34.90
2022-08-04T14:41:27.379Z,34.70
2022-08-04T14:43:57.520Z,34.70
2022-08-04T14:46:35.959Z,34.70
2022-08-04T14:49:10.235Z,34.60
2022-08-04T14:51:42.832Z,34.60
2022-08-04T14:54:17.456Z,34.50
2022-08-04T14:56:55.202Z,34.40
2022-08-04T14:59:24.609Z,34.30
2022-08-04T15:02:01.010Z,34.30
2022-08-04T15:04:31.432Z,34.20
2022-08-04T15:07:04.522Z,34.00
2022-08-04T15:09:33.190Z,33.80
2022-08-04T15:12:01.744Z,33.90
2022-08-04T15:14:37.108Z,34.10
2022-08-04T15:17:30.042Z,34.10
2022-08-04T15:19:57.564Z,34.20
2022-08-04T15:22:27.592Z,34.20
2022-08-04T15:24:56.242Z,34.20
2022-08-04T15:27:27.196Z,34.10
2022-08-04T15:30:01.536Z,34.10
2022-08-04T15:32:32.636Z,34.10
2022-08-04T15:35:06.740Z,34.10
2022-08-04T15:37:46.391Z,34.30
2022-08-04T15:40:17.275Z,34.30
2022-08-04T15:43:09.103Z,34.40
2022-08-04T15:46:32.940Z,34.30
2022-08-04T15:48:41.584Z,34.30
2022-08-04T15:51:16.865Z,34.30
2022-08-04T15:54:30.742Z,34.30
2022-08-04T15:57:03.690Z,34.20
2022-08-04T15:59:58.496Z,34.20
2022-08-04T16:02:50.655Z,34.30
2022-08-04T16:05:35.726Z,34.30
2022-08-04T16:08:32.883Z,34.20
2022-08-04T16:21:49.740Z,34.10
2022-08-04T16:24:23.356Z,34.10
2022-08-04T16:26:56.647Z,34.00
2022-08-04T16:29:39.017Z,34.00
2022-08-04T16:32:36.127Z,34.00
2022-08-04T16:35:09.343Z,34.00
2022-08-04T16:37:40.000Z,33.90
2022-08-04T16:40:44.214Z,33.90
2022-08-04T16:43:14.648Z,33.90
2022-08-04T16:49:16.320Z,33.70
2022-08-04T16:51:46.441Z,33.60
2022-08-04T16:54:14.662Z,33.50
2022-08-04T16:56:45.084Z,33.40
2022-08-04T16:59:16.533Z,33.40
2022-08-04T17:01:49.391Z,33.40
2022-08-04T17:04:19.372Z,33.40
2022-08-04T17:06:47.542Z,33.30
2022-08-04T17:09:17.649Z,33.20
2022-08-04T17:11:47.726Z,33.20
2022-08-04T17:14:22.937Z,33.20
2022-08-04T17:16:51.445Z,33.10
2022-08-04T17:19:26.070Z,33.00
2022-08-04T17:22:02.862Z,32.90
2022-08-04T17:24:41.939Z,32.80
2022-08-04T17:28:09.886Z,32.70
2022-08-04T17:29:59.492Z,32.60
2022-08-04T17:32:27.959Z,32.50
2022-08-04T17:35:03.580Z,32.40
2022-08-04T17:37:40.038Z,32.20
2022-08-04T17:40:11.858Z,32.10
2022-08-04T17:42:42.010Z,32.00
2022-08-04T17:45:49.084Z,31.80
2022-08-04T17:47:59.744Z,31.70
2022-08-04T17:50:34.636Z,31.50
2022-08-04T17:53:12.155Z,31.40
2022-08-04T17:55:44.687Z,31.20
2022-08-04T17:58:21.082Z,31.10
2022-08-04T18:03:53.315Z,30.90
2022-08-04T18:06:25.392Z,30.70
2022-08-04T18:08:57.903Z,30.60
2022-08-04T18:11:29.624Z,30.40
2022-08-04T18:14:11.194Z,30.30
2022-08-04T18:16:45.221Z,30.10
2022-08-04T18:19:15.303Z,29.90
2022-08-04T18:21:59.585Z,29.80
2022-08-04T18:24:35.275Z,29.70
2022-08-04T18:27:19.572Z,29.50
2022-08-04T18:29:56.542Z,29.30
2022-08-04T18:32:36.330Z,29.10
2022-08-04T18:35:07.257Z,28.90
2022-08-04T18:42:02.243Z,28.60
2022-08-04T18:44:27.525Z,28.50
2022-08-04T18:46:56.603Z,28.30
2022-08-04T18:50:58.600Z,28.10
2022-08-04T18:52:15.296Z,28.00
2022-08-04T18:54:45.018Z,27.90
2022-08-04T18:57:32.085Z,27.80
2022-08-04T19:00:04.378Z,27.60
2022-08-04T19:02:33.242Z,27.50
2022-08-04T19:05:02.427Z,27.40
2022-08-04T19:07:30.736Z,27.30
2022-08-04T19:09:59.798Z,27.20
2022-08-04T19:12:44.271Z,27.20
2022-08-04T19:15:13.469Z,27.10
2022-08-04T19:17:49.989Z,27.10
2022-08-04T19:20:26.315Z,27.10
2022-08-04T19:24:30.398Z,27.10
2022-08-04T19:26:02.347Z,27.10
2022-08-04T19:28:35.952Z,27.00
2022-08-04T19:31:05.638Z,26.90
2022-08-04T19:33:58.991Z,26.80
2022-08-04T19:36:29.041Z,26.90
2022-08-04T19:38:59.750Z,27.00
2022-08-04T19:41:29.460Z,27.10
2022-08-04T19:44:00.668Z,27.20
2022-08-04T19:46:29.440Z,27.10
2022-08-04T19:49:00.755Z,27.10
2022-08-04T19:51:34.064Z,27.10
2022-08-04T19:54:02.485Z,27.00
2022-08-04T19:56:40.395Z,27.00
2022-08-04T19:59:11.293Z,26.90
2022-08-04T20:01:44.550Z,27.10
2022-08-04T20:04:13.151Z,27.10
2022-08-04T20:06:43.621Z,27.10
2022-08-04T20:09:24.860Z,27.30
2022-08-04T20:11:55.619Z,27.40
2022-08-04T20:14:32.339Z,27.80
2022-08-04T20:17:01.689Z,27.90
2022-08-04T20:19:30.320Z,27.90
2022-08-04T20:21:58.997Z,28.00
2022-08-04T20:24:39.860Z,28.10
2022-08-04T20:27:17.348Z,28.00
2022-08-04T20:29:49.309Z,28.00
2022-08-04T20:35:08.955Z,27.90
2022-08-04T20:37:59.981Z,27.80
2022-08-04T20:40:29.927Z,27.80
2022-08-04T20:42:58.286Z,27.90
2022-08-04T20:45:56.533Z,27.80
2022-08-04T20:48:16.519Z,27.80
2022-08-04T20:50:46.437Z,27.70
2022-08-04T20:53:16.176Z,27.60
2022-08-04T20:58:33.748Z,27.80
2022-08-04T21:01:03.221Z,27.80
2022-08-04T21:04:00.600Z,27.80
2022-08-04T21:06:29.005Z,27.80
2022-08-04T21:08:58.326Z,27.70
2022-08-04T21:11:32.717Z,27.80
2022-08-04T21:14:01.505Z,27.70
2022-08-04T21:16:55.387Z,27.60
2022-08-04T21:19:18.972Z,27.50
2022-08-04T21:21:53.297Z,27.40
2022-08-04T21:24:26.017Z,27.70
2022-08-04T21:26:57.135Z,27.80
2022-08-04T21:29:34.842Z,27.90
2022-08-04T21:32:07.505Z,28.00
2022-08-04T21:34:38.970Z,28.10
2022-08-04T21:37:09.890Z,28.00
2022-08-04T21:39:50.249Z,27.90
2022-08-04T21:42:29.237Z,27.90
2022-08-04T21:44:58.559Z,27.80
2022-08-04T21:47:45.932Z,28.00
2022-08-04T21:50:19.846Z,27.90
2022-08-04T21:52:49.186Z,27.90
2022-08-04T21:55:19.046Z,28.00
2022-08-04T21:57:49.499Z,28.00
2022-08-04T22:00:20.270Z,28.00
2022-08-04T22:02:53.551Z,27.90
2022-08-04T22:05:22.153Z,27.80
2022-08-04T22:07:51.757Z,28.00
2022-08-04T22:13:08.176Z,27.90
2022-08-04T22:16:04.690Z,27.80
2022-08-04T22:18:27.308Z,27.70
2022-08-04T22:20:55.980Z,27.50
2022-08-04T22:23:25.373Z,27.30
2022-08-04T22:25:56.037Z,27.10
2022-08-04T22:28:28.480Z,27.00
2022-08-04T22:30:57.300Z,27.00
2022-08-04T22:33:54.448Z,26.90
2022-08-04T22:36:17.664Z,27.00
2022-08-04T22:38:56.905Z,27.00
2022-08-04T22:41:48.778Z,27.00
2022-08-04T22:44:22.711Z,26.80
2022-08-04T22:46:51.855Z,26.90
2022-08-04T22:49:23.775Z,27.00
2022-08-04T22:51:53.440Z,27.10
2022-08-04T22:54:21.424Z,27.20
2022-08-04T22:56:53.959Z,27.30
2022-08-04T22:59:22.010Z,27.30
2022-08-04T23:02:00.635Z,27.20
2022-08-04T23:04:32.827Z,27.30
2022-08-04T23:07:09.097Z,27.20
2022-08-04T23:09:50.467Z,27.30
2022-08-04T23:12:26.229Z,27.20
2022-08-04T23:14:55.402Z,27.30
2022-08-04T23:17:23.915Z,27.30
2022-08-04T23:19:57.705Z,27.40
2022-08-04T23:22:41.188Z,27.50
2022-08-04T23:25:15.255Z,27.60
2022-08-04T23:27:50.449Z,27.60
2022-08-04T23:30:21.707Z,27.60
2022-08-04T23:32:52.982Z,27.60
2022-08-04T23:35:23.883Z,27.50
2022-08-04T23:37:56.116Z,27.40
2022-08-04T23:40:33.033Z,27.20
2022-08-04T23:43:17.501Z,27.00
2022-08-04T23:46:07.733Z,26.90
2022-08-04T23:48:34.934Z,26.80
2022-08-04T23:51:14.241Z,26.70
2022-08-04T23:54:01.772Z,26.70
2022-08-04T23:56:32.475Z,26.60
2022-08-04T23:59:03.677Z,26.50
